Station History

Weather Underground - logo

Station Historical Data
Daily Summary for January 1, 2018 Units:  Both    English   Metric
« Previous Day
Next Day »
Daily Weekly Monthly Yearly Custom
  High: Low: Average:
Temperature: 62.8 °F /  17.1 °C 36.1 °F /  2.3 °C 47.7 °F /  8.7 °C
Dew Point: 47.0 °F /  8.3 °C 33.2 °F /  0.7 °C 40.8 °F /  4.9 °C
Humidity: 92 % 54 % 78 %
Wind Speed: 5.8 mph /  9.3 km/h - 0.5 mph /  0.8 km/h
Wind Gust: 5.8 mph /  9.3 km/h - -
Wind:- - WSW
Pressure: 30.30 in /  1026 hPa 30.16 in /  1021.2 hPa -
Precipitation: 0.00 in /  0 mm    
Historical Graphs
 
 
Tabular Data for January 1, 2018
Time Temperature Dew Point Pressure Wind Wind Speed Wind Gust Humidity Rainfall Rate (Hourly)
00:00 40.1 °F /  4.5 °C 37.1 °F /  2.8 °C 30.19 in /  1022.2 hPa Calm     89 % 0.00 in /  0 mm
00:05 40.0 °F /  4.4 °C 36.7 °F /  2.6 °C 30.19 in /  1022.2 hPa Calm     88 % 0.00 in /  0 mm
00:06 40.0 °F /  4.4 °C 36.7 °F /  2.6 °C 30.19 in /  1022.2 hPa Calm     88 % 0.00 in /  0 mm
00:11 40.0 °F /  4.4 °C 36.7 °F /  2.6 °C 30.19 in /  1022.2 hPa Calm     88 % 0.00 in /  0 mm
00:13 40.0 °F /  4.4 °C 36.7 °F /  2.6 °C 30.19 in /  1022.2 hPa Calm     88 % 0.00 in /  0 mm
00:18 39.9 °F /  4.4 °C 36.6 °F /  2.6 °C 30.19 in /  1022.2 hPa Calm     88 % 0.00 in /  0 mm
00:19 39.8 °F /  4.3 °C 36.5 °F /  2.5 °C 30.19 in /  1022.2 hPa Calm     88 % 0.00 in /  0 mm
00:22 39.8 °F /  4.3 °C 36.8 °F /  2.7 °C 30.19 in /  1022.2 hPa Calm     89 % 0.00 in /  0 mm
00:27 39.7 °F /  4.3 °C 36.7 °F /  2.6 °C 30.19 in /  1022.2 hPa Calm     89 % 0.00 in /  0 mm
00:31 39.7 °F /  4.3 °C 36.4 °F /  2.4 °C 30.19 in /  1022.2 hPa Calm     88 % 0.00 in /  0 mm
00:36 39.5 °F /  4.2 °C 36.2 °F /  2.3 °C 30.19 in /  1022.2 hPa Calm     88 % 0.00 in /  0 mm
00:39 39.3 °F /  4.1 °C 36.0 °F /  2.2 °C 30.19 in /  1022.2 hPa Calm     88 % 0.00 in /  0 mm
00:44 39.2 °F /  4 °C 35.9 °F /  2.2 °C 30.19 in /  1022.2 hPa Calm     88 % 0.00 in /  0 mm
00:47 39.2 °F /  4 °C 35.9 °F /  2.2 °C 30.19 in /  1022.2 hPa Calm     88 % 0.00 in /  0 mm
00:54 39.0 °F /  3.9 °C 36.0 °F /  2.2 °C 30.19 in /  1022.2 hPa Calm     89 % 0.00 in /  0 mm
00:59 39.2 °F /  4 °C 36.2 °F /  2.3 °C 30.19 in /  1022.2 hPa Calm     89 % 0.00 in /  0 mm
01:00 39.2 °F /  4 °C 36.2 °F /  2.3 °C 30.19 in /  1022.2 hPa Calm     89 % 0.00 in /  0 mm
01:01 39.3 °F /  4.1 °C 36.3 °F /  2.4 °C 30.19 in /  1022.2 hPa Calm     89 % 0.00 in /  0 mm
01:05 39.5 °F /  4.2 °C 36.5 °F /  2.5 °C 30.19 in /  1022.2 hPa Calm     89 % 0.00 in /  0 mm
01:10 40.0 °F /  4.4 °C 36.7 °F /  2.6 °C 30.19 in /  1022.2 hPa Calm     88 % 0.00 in /  0 mm
01:12 40.1 °F /  4.5 °C 36.5 °F /  2.5 °C 30.19 in /  1022.2 hPa Calm     87 % 0.00 in /  0 mm
01:17 40.5 °F /  4.7 °C 36.9 °F /  2.7 °C 30.19 in /  1022.2 hPa North 1.2 mph /  1.9 km/h   87 % 0.00 in /  0 mm
01:24 40.6 °F /  4.8 °C 36.7 °F /  2.6 °C 30.19 in /  1022.2 hPa Calm     86 % 0.00 in /  0 mm
01:27 40.5 °F /  4.7 °C 36.6 °F /  2.6 °C 30.19 in /  1022.2 hPa Calm     86 % 0.00 in /  0 mm
01:32 40.3 °F /  4.6 °C 36.4 °F /  2.4 °C 30.19 in /  1022.2 hPa Calm     86 % 0.00 in /  0 mm
01:38 40.1 °F /  4.5 °C 36.2 °F /  2.3 °C 30.19 in /  1022.2 hPa Calm     86 % 0.00 in /  0 mm
01:39 40.1 °F /  4.5 °C 36.2 °F /  2.3 °C 30.19 in /  1022.2 hPa Calm     86 % 0.00 in /  0 mm
01:41 40.1 °F /  4.5 °C 36.2 °F /  2.3 °C 30.19 in /  1022.2 hPa Calm     86 % 0.00 in /  0 mm
01:46 39.9 °F /  4.4 °C 36.3 °F /  2.4 °C 30.19 in /  1022.2 hPa Calm     87 % 0.00 in /  0 mm
01:51 39.6 °F /  4.2 °C 36.0 °F /  2.2 °C 30.19 in /  1022.2 hPa Calm     87 % 0.00 in /  0 mm
01:56 39.4 °F /  4.1 °C 35.9 °F /  2.2 °C 30.19 in /  1022.2 hPa Calm     87 % 0.00 in /  0 mm
02:01 39.1 °F /  3.9 °C 35.8 °F /  2.1 °C 30.19 in /  1022.2 hPa Calm     88 % 0.00 in /  0 mm
02:06 39.1 °F /  3.9 °C 36.1 °F /  2.3 °C 30.19 in /  1022.2 hPa Calm     89 % 0.00 in /  0 mm
02:07 39.1 °F /  3.9 °C 36.1 °F /  2.3 °C 30.19 in /  1022.2 hPa Calm     89 % 0.00 in /  0 mm
02:12 39.1 °F /  3.9 °C 36.1 °F /  2.3 °C 30.19 in /  1022.2 hPa Calm     89 % 0.00 in /  0 mm
02:13 39.1 °F /  3.9 °C 36.1 °F /  2.3 °C 30.19 in /  1022.2 hPa Calm     89 % 0.00 in /  0 mm
02:15 39.1 °F /  3.9 °C 36.1 °F /  2.3 °C 30.19 in /  1022.2 hPa Calm     89 % 0.00 in /  0 mm
02:20 39.1 °F /  3.9 °C 35.8 °F /  2.1 °C 30.19 in /  1022.2 hPa Calm     88 % 0.00 in /  0 mm
02:25 38.8 °F /  3.8 °C 35.3 °F /  1.8 °C 30.19 in /  1022.2 hPa Calm     87 % 0.00 in /  0 mm
02:26 38.7 °F /  3.7 °C 35.2 °F /  1.8 °C 30.19 in /  1022.2 hPa Calm     87 % 0.00 in /  0 mm
02:27 38.7 °F /  3.7 °C 35.2 °F /  1.8 °C 30.19 in /  1022.2 hPa Calm     87 % 0.00 in /  0 mm
02:32 38.3 °F /  3.5 °C 35.1 °F /  1.7 °C 30.20 in /  1022.6 hPa Calm     88 % 0.00 in /  0 mm
02:37 37.9 °F /  3.3 °C 34.7 °F /  1.5 °C 30.20 in /  1022.6 hPa Calm     88 % 0.00 in /  0 mm
02:42 37.8 °F /  3.2 °C 34.8 °F /  1.6 °C 30.20 in /  1022.6 hPa Calm     89 % 0.00 in /  0 mm
02:44 37.7 °F /  3.2 °C 34.8 °F /  1.6 °C 30.20 in /  1022.6 hPa Calm     89 % 0.00 in /  0 mm
02:49 37.6 °F /  3.1 °C 34.7 °F /  1.5 °C 30.20 in /  1022.6 hPa Calm     89 % 0.00 in /  0 mm
02:52 37.6 °F /  3.1 °C 34.7 °F /  1.5 °C 30.20 in /  1022.6 hPa Calm     89 % 0.00 in /  0 mm
02:53 37.5 °F /  3.1 °C 34.6 °F /  1.4 °C 30.20 in /  1022.6 hPa Calm     89 % 0.00 in /  0 mm
02:58 37.5 °F /  3.1 °C 34.6 °F /  1.4 °C 30.20 in /  1022.6 hPa Calm     89 % 0.00 in /  0 mm
02:59 37.4 °F /  3 °C 34.5 °F /  1.4 °C 30.20 in /  1022.6 hPa Calm     89 % 0.00 in /  0 mm
03:04 37.2 °F /  2.9 °C 34.3 °F /  1.3 °C 30.20 in /  1022.6 hPa Calm     89 % 0.00 in /  0 mm
03:05 37.2 °F /  2.9 °C 34.3 °F /  1.3 °C 30.20 in /  1022.6 hPa Calm     89 % 0.00 in /  0 mm
03:07 37.1 °F /  2.8 °C 34.2 °F /  1.2 °C 30.21 in /  1022.9 hPa Calm     89 % 0.00 in /  0 mm
03:10 37.0 °F /  2.8 °C 34.1 °F /  1.2 °C 30.21 in /  1022.9 hPa Calm     89 % 0.00 in /  0 mm
03:15 37.0 °F /  2.8 °C 34.3 °F /  1.3 °C 30.20 in /  1022.6 hPa Calm     90 % 0.00 in /  0 mm
03:17 37.1 °F /  2.8 °C 34.4 °F /  1.3 °C 30.20 in /  1022.6 hPa Calm     90 % 0.00 in /  0 mm
03:18 37.3 °F /  2.9 °C 34.6 °F /  1.4 °C 30.20 in /  1022.6 hPa Calm     90 % 0.00 in /  0 mm
03:24 37.5 °F /  3.1 °C 34.8 °F /  1.6 °C 30.20 in /  1022.6 hPa Calm     90 % 0.00 in /  0 mm
03:26 37.5 °F /  3.1 °C 34.6 °F /  1.4 °C 30.20 in /  1022.6 hPa Calm     89 % 0.00 in /  0 mm
03:30 37.4 °F /  3 °C 34.7 °F /  1.5 °C 30.21 in /  1022.9 hPa Calm     90 % 0.00 in /  0 mm
03:33 37.5 °F /  3.1 °C 34.8 °F /  1.6 °C 30.21 in /  1022.9 hPa Calm     90 % 0.00 in /  0 mm
03:38 37.5 °F /  3.1 °C 34.8 °F /  1.6 °C 30.22 in /  1023.2 hPa Calm     90 % 0.00 in /  0 mm
03:40 37.5 °F /  3.1 °C 34.8 °F /  1.6 °C 30.22 in /  1023.2 hPa Calm     90 % 0.00 in /  0 mm
03:45 37.4 °F /  3 °C 34.5 °F /  1.4 °C 30.21 in /  1022.9 hPa Calm     89 % 0.00 in /  0 mm
03:46 37.4 °F /  3 °C 34.5 °F /  1.4 °C 30.21 in /  1022.9 hPa Calm     89 % 0.00 in /  0 mm
03:49 37.5 °F /  3.1 °C 34.6 °F /  1.4 °C 30.22 in /  1023.2 hPa Calm     89 % 0.00 in /  0 mm
03:52 37.6 °F /  3.1 °C 34.7 °F /  1.5 °C 30.21 in /  1022.9 hPa Calm     89 % 0.00 in /  0 mm
03:57 37.5 °F /  3.1 °C 34.3 °F /  1.3 °C 30.21 in /  1022.9 hPa Calm     88 % 0.00 in /  0 mm
04:00 37.5 °F /  3.1 °C 34.3 °F /  1.3 °C 30.21 in /  1022.9 hPa Calm     88 % 0.00 in /  0 mm
04:05 37.6 °F /  3.1 °C 34.4 °F /  1.3 °C 30.22 in /  1023.2 hPa Calm     88 % 0.00 in /  0 mm
04:07 37.5 °F /  3.1 °C 34.3 °F /  1.3 °C 30.21 in /  1022.9 hPa Calm     88 % 0.00 in /  0 mm
04:12 37.1 °F /  2.8 °C 33.6 °F /  0.9 °C 30.22 in /  1023.2 hPa Calm     87 % 0.00 in /  0 mm
04:16 36.9 °F /  2.7 °C 33.7 °F /  0.9 °C 30.22 in /  1023.2 hPa Calm     88 % 0.00 in /  0 mm
04:19 36.9 °F /  2.7 °C 34.0 °F /  1.1 °C 30.22 in /  1023.2 hPa Calm     89 % 0.00 in /  0 mm
04:22 36.8 °F /  2.7 °C 33.9 °F /  1.1 °C 30.22 in /  1023.2 hPa Calm     89 % 0.00 in /  0 mm
04:26 36.8 °F /  2.7 °C 34.1 °F /  1.2 °C 30.22 in /  1023.2 hPa Calm     90 % 0.00 in /  0 mm
04:27 36.8 °F /  2.7 °C 34.1 °F /  1.2 °C 30.22 in /  1023.2 hPa Calm     90 % 0.00 in /  0 mm
04:32 36.9 °F /  2.7 °C 34.2 °F /  1.2 °C 30.22 in /  1023.2 hPa Calm     90 % 0.00 in /  0 mm
04:33 36.9 °F /  2.7 °C 34.2 °F /  1.2 °C 30.22 in /  1023.2 hPa Calm     90 % 0.00 in /  0 mm
04:38 36.8 °F /  2.7 °C 34.1 °F /  1.2 °C 30.22 in /  1023.2 hPa Calm     90 % 0.00 in /  0 mm
04:41 36.8 °F /  2.7 °C 34.1 °F /  1.2 °C 30.22 in /  1023.2 hPa Calm     90 % 0.00 in /  0 mm
04:42 36.8 °F /  2.7 °C 34.1 °F /  1.2 °C 30.22 in /  1023.2 hPa Calm     90 % 0.00 in /  0 mm
04:47 36.9 °F /  2.7 °C 34.5 °F /  1.4 °C 30.22 in /  1023.2 hPa Calm     91 % 0.00 in /  0 mm
04:48 36.9 °F /  2.7 °C 34.5 °F /  1.4 °C 30.22 in /  1023.2 hPa Calm     91 % 0.00 in /  0 mm
04:49 36.9 °F /  2.7 °C 34.5 °F /  1.4 °C 30.22 in /  1023.2 hPa Calm     91 % 0.00 in /  0 mm
04:54 37.0 °F /  2.8 °C 34.6 °F /  1.4 °C 30.22 in /  1023.2 hPa Calm     91 % 0.00 in /  0 mm
04:59 37.0 °F /  2.8 °C 34.3 °F /  1.3 °C 30.22 in /  1023.2 hPa Calm     90 % 0.00 in /  0 mm
05:04 36.9 °F /  2.7 °C 34.2 °F /  1.2 °C 30.22 in /  1023.2 hPa Calm     90 % 0.00 in /  0 mm
05:06 36.9 °F /  2.7 °C 34.2 °F /  1.2 °C 30.22 in /  1023.2 hPa Calm     90 % 0.00 in /  0 mm
05:11 36.7 °F /  2.6 °C 34.0 °F /  1.1 °C 30.22 in /  1023.2 hPa Calm     90 % 0.00 in /  0 mm
05:13 36.7 °F /  2.6 °C 34.0 °F /  1.1 °C 30.22 in /  1023.2 hPa Calm     90 % 0.00 in /  0 mm
05:18 36.6 °F /  2.6 °C 34.2 °F /  1.2 °C 30.22 in /  1023.2 hPa Calm     91 % 0.00 in /  0 mm
05:21 36.7 °F /  2.6 °C 34.0 °F /  1.1 °C 30.22 in /  1023.2 hPa Calm     90 % 0.00 in /  0 mm
05:23 36.6 °F /  2.6 °C 33.9 °F /  1.1 °C 30.22 in /  1023.2 hPa Calm     90 % 0.00 in /  0 mm
05:28 36.4 °F /  2.4 °C 33.5 °F /  0.8 °C 30.22 in /  1023.2 hPa Calm     89 % 0.00 in /  0 mm
05:33 36.5 °F /  2.5 °C 33.8 °F /  1 °C 30.22 in /  1023.2 hPa Calm     90 % 0.00 in /  0 mm
05:38 36.5 °F /  2.5 °C 33.6 °F /  0.9 °C 30.22 in /  1023.2 hPa Calm     89 % 0.00 in /  0 mm
05:40 36.4 °F /  2.4 °C 33.5 °F /  0.8 °C 30.22 in /  1023.2 hPa Calm     89 % 0.00 in /  0 mm
05:44 36.5 °F /  2.5 °C 33.6 °F /  0.9 °C 30.23 in /  1023.6 hPa Calm     89 % 0.00 in /  0 mm
05:46 36.5 °F /  2.5 °C 33.8 °F /  1 °C 30.23 in /  1023.6 hPa Calm     90 % 0.00 in /  0 mm
05:51 36.6 °F /  2.6 °C 33.9 °F /  1.1 °C 30.23 in /  1023.6 hPa Calm     90 % 0.00 in /  0 mm
05:52 36.6 °F /  2.6 °C 33.9 °F /  1.1 °C 30.23 in /  1023.6 hPa Calm     90 % 0.00 in /  0 mm
05:57 36.3 °F /  2.4 °C 33.4 °F /  0.8 °C 30.23 in /  1023.6 hPa Calm     89 % 0.00 in /  0 mm
06:02 36.1 °F /  2.3 °C 33.2 °F /  0.7 °C 30.23 in /  1023.6 hPa Calm     89 % 0.00 in /  0 mm
06:07 36.1 °F /  2.3 °C 33.5 °F /  0.8 °C 30.24 in /  1023.9 hPa Calm     90 % 0.00 in /  0 mm
06:11 36.1 °F /  2.3 °C 33.5 °F /  0.8 °C 30.24 in /  1023.9 hPa Calm     90 % 0.00 in /  0 mm
06:16 36.3 °F /  2.4 °C 33.6 °F /  0.9 °C 30.24 in /  1023.9 hPa Calm     90 % 0.00 in /  0 mm
06:19 36.5 °F /  2.5 °C 34.1 °F /  1.2 °C 30.24 in /  1023.9 hPa North 1.2 mph /  1.9 km/h 1.2 mph /  1.9 km/h 91 % 0.00 in /  0 mm
06:24 36.8 °F /  2.7 °C 34.1 °F /  1.2 °C 30.25 in /  1024.3 hPa North 1.2 mph /  1.9 km/h 1.2 mph /  1.9 km/h 90 % 0.00 in /  0 mm
06:25 36.9 °F /  2.7 °C 34.2 °F /  1.2 °C 30.25 in /  1024.3 hPa Calm   0.2 mph /  0.3 km/h 90 % 0.00 in /  0 mm
06:29 37.1 °F /  2.8 °C 34.4 °F /  1.3 °C 30.25 in /  1024.3 hPa North 1.2 mph /  1.9 km/h   90 % 0.00 in /  0 mm
06:34 37.2 °F /  2.9 °C 34.5 °F /  1.4 °C 30.25 in /  1024.3 hPa North 2.3 mph /  3.7 km/h 2.3 mph /  3.7 km/h 90 % 0.00 in /  0 mm
06:39 37.1 °F /  2.8 °C 34.2 °F /  1.2 °C 30.25 in /  1024.3 hPa North 1.2 mph /  1.9 km/h 1.2 mph /  1.9 km/h 89 % 0.00 in /  0 mm
06:40 37.1 °F /  2.8 °C 34.2 °F /  1.2 °C 30.25 in /  1024.3 hPa North 1.2 mph /  1.9 km/h 1.2 mph /  1.9 km/h 89 % 0.00 in /  0 mm
06:42 36.9 °F /  2.7 °C 34.0 °F /  1.1 °C 30.25 in /  1024.3 hPa North 2.3 mph /  3.7 km/h 2.3 mph /  3.7 km/h 89 % 0.00 in /  0 mm
06:44 36.7 °F /  2.6 °C 33.8 °F /  1 °C 30.25 in /  1024.3 hPa North 1.2 mph /  1.9 km/h 1.2 mph /  1.9 km/h 89 % 0.00 in /  0 mm
06:49 36.4 °F /  2.4 °C 33.5 °F /  0.8 °C 30.25 in /  1024.3 hPa Calm     89 % 0.00 in /  0 mm
06:54 36.3 °F /  2.4 °C 33.6 °F /  0.9 °C 30.25 in /  1024.3 hPa North 2.3 mph /  3.7 km/h 2.3 mph /  3.7 km/h 90 % 0.00 in /  0 mm
06:59 36.3 °F /  2.4 °C 33.6 °F /  0.9 °C 30.25 in /  1024.3 hPa Calm   0.2 mph /  0.3 km/h 90 % 0.00 in /  0 mm
07:00 36.3 °F /  2.4 °C 33.6 °F /  0.9 °C 30.25 in /  1024.3 hPa North 1.2 mph /  1.9 km/h   90 % 0.00 in /  0 mm
07:05 36.5 °F /  2.5 °C 34.1 °F /  1.2 °C 30.25 in /  1024.3 hPa North 1.2 mph /  1.9 km/h 1.2 mph /  1.9 km/h 91 % 0.00 in /  0 mm
07:10 36.7 °F /  2.6 °C 34.3 °F /  1.3 °C 30.25 in /  1024.3 hPa Calm     91 % 0.00 in /  0 mm
07:12 36.8 °F /  2.7 °C 34.4 °F /  1.3 °C 30.25 in /  1024.3 hPa North 1.2 mph /  1.9 km/h   91 % 0.00 in /  0 mm
07:17 36.9 °F /  2.7 °C 34.5 °F /  1.4 °C 30.25 in /  1024.3 hPa Calm     91 % 0.00 in /  0 mm
07:22 36.9 °F /  2.7 °C 34.2 °F /  1.2 °C 30.25 in /  1024.3 hPa Calm     90 % 0.00 in /  0 mm
07:23 36.9 °F /  2.7 °C 34.2 °F /  1.2 °C 30.25 in /  1024.3 hPa Calm     90 % 0.00 in /  0 mm
07:25 36.9 °F /  2.7 °C 34.2 °F /  1.2 °C 30.25 in /  1024.3 hPa Calm     90 % 0.00 in /  0 mm
07:28 36.8 °F /  2.7 °C 34.1 °F /  1.2 °C 30.25 in /  1024.3 hPa Calm     90 % 0.00 in /  0 mm
07:33 36.8 °F /  2.7 °C 34.4 °F /  1.3 °C 30.25 in /  1024.3 hPa Calm     91 % 0.00 in /  0 mm
07:35 36.9 °F /  2.7 °C 34.5 °F /  1.4 °C 30.25 in /  1024.3 hPa Calm     91 % 0.00 in /  0 mm
07:41 37.4 °F /  3 °C 35.3 °F /  1.8 °C 30.25 in /  1024.3 hPa Calm     92 % 0.00 in /  0 mm
07:43 37.7 °F /  3.2 °C 35.6 °F /  2 °C 30.25 in /  1024.3 hPa Calm     92 % 0.00 in /  0 mm
07:48 38.3 °F /  3.5 °C 36.2 °F /  2.3 °C 30.25 in /  1024.3 hPa Calm     92 % 0.00 in /  0 mm
07:49 38.4 °F /  3.6 °C 36.0 °F /  2.2 °C 30.25 in /  1024.3 hPa Calm     91 % 0.00 in /  0 mm
07:52 38.6 °F /  3.7 °C 36.2 °F /  2.3 °C 30.25 in /  1024.3 hPa Calm     91 % 0.00 in /  0 mm
07:54 38.8 °F /  3.8 °C 36.4 °F /  2.4 °C 30.25 in /  1024.3 hPa Calm     91 % 0.00 in /  0 mm
07:59 39.4 °F /  4.1 °C 36.7 °F /  2.6 °C 30.26 in /  1024.6 hPa Calm     90 % 0.00 in /  0 mm
08:03 39.9 °F /  4.4 °C 36.9 °F /  2.7 °C 30.26 in /  1024.6 hPa Calm     89 % 0.00 in /  0 mm
08:08 40.6 °F /  4.8 °C 37.0 °F /  2.8 °C 30.26 in /  1024.6 hPa Calm     87 % 0.00 in /  0 mm
08:09 40.7 °F /  4.8 °C 37.1 °F /  2.8 °C 30.26 in /  1024.6 hPa Calm     87 % 0.00 in /  0 mm
08:14 41.2 °F /  5.1 °C 37.6 °F /  3.1 °C 30.26 in /  1024.6 hPa Calm     87 % 0.00 in /  0 mm
08:19 41.7 °F /  5.4 °C 37.8 °F /  3.2 °C 30.26 in /  1024.6 hPa Calm     86 % 0.00 in /  0 mm
08:24 42.4 °F /  5.8 °C 38.5 °F /  3.6 °C 30.26 in /  1024.6 hPa Calm     86 % 0.00 in /  0 mm
08:25 42.6 °F /  5.9 °C 38.7 °F /  3.7 °C 30.26 in /  1024.6 hPa Calm     86 % 0.00 in /  0 mm
08:26 42.8 °F /  6 °C 38.9 °F /  3.8 °C 30.26 in /  1024.6 hPa Calm     86 % 0.00 in /  0 mm
08:29 43.2 °F /  6.2 °C 39.3 °F /  4.1 °C 30.26 in /  1024.6 hPa Calm     86 % 0.00 in /  0 mm
08:32 43.5 °F /  6.4 °C 39.6 °F /  4.2 °C 30.27 in /  1024.9 hPa Calm     86 % 0.00 in /  0 mm
08:36 44.2 °F /  6.8 °C 39.7 °F /  4.3 °C 30.27 in /  1024.9 hPa SSE 1.2 mph /  1.9 km/h 1.2 mph /  1.9 km/h 84 % 0.00 in /  0 mm
08:37 44.3 °F /  6.8 °C 39.8 °F /  4.3 °C 30.27 in /  1024.9 hPa SSE 1.2 mph /  1.9 km/h 1.2 mph /  1.9 km/h 84 % 0.00 in /  0 mm
08:38 44.4 °F /  6.9 °C 39.9 °F /  4.4 °C 30.27 in /  1024.9 hPa Calm     84 % 0.00 in /  0 mm
08:43 44.7 °F /  7.1 °C 39.5 °F /  4.2 °C 30.27 in /  1024.9 hPa SSE 1.2 mph /  1.9 km/h 1.2 mph /  1.9 km/h 82 % 0.00 in /  0 mm
08:49 44.8 °F /  7.1 °C 39.0 °F /  3.9 °C 30.27 in /  1024.9 hPa South 1.2 mph /  1.9 km/h 1.2 mph /  1.9 km/h 80 % 0.00 in /  0 mm
08:54 44.8 °F /  7.1 °C 39.3 °F /  4.1 °C 30.27 in /  1024.9 hPa Calm     81 % 0.00 in /  0 mm
08:57 44.9 °F /  7.2 °C 39.1 °F /  3.9 °C 30.27 in /  1024.9 hPa Calm     80 % 0.00 in /  0 mm
08:58 44.9 °F /  7.2 °C 39.1 °F /  3.9 °C 30.27 in /  1024.9 hPa SSE 3.5 mph /  5.6 km/h 3.5 mph /  5.6 km/h 80 % 0.00 in /  0 mm
09:03 45.1 °F /  7.3 °C 39.0 °F /  3.9 °C 30.27 in /  1024.9 hPa SSE 2.3 mph /  3.7 km/h 2.3 mph /  3.7 km/h 79 % 0.00 in /  0 mm
09:04 45.2 °F /  7.3 °C 38.7 °F /  3.7 °C 30.27 in /  1024.9 hPa SSE 2.3 mph /  3.7 km/h 2.3 mph /  3.7 km/h 78 % 0.00 in /  0 mm
09:09 45.6 °F /  7.6 °C 38.8 °F /  3.8 °C 30.28 in /  1025.3 hPa SE 5.8 mph /  9.3 km/h 5.8 mph /  9.3 km/h 77 % 0.00 in /  0 mm
09:10 45.7 °F /  7.6 °C 38.9 °F /  3.8 °C 30.28 in /  1025.3 hPa ESE 3.5 mph /  5.6 km/h 3.5 mph /  5.6 km/h 77 % 0.00 in /  0 mm
09:15 46.0 °F /  7.8 °C 39.2 °F /  4 °C 30.28 in /  1025.3 hPa SSE 3.5 mph /  5.6 km/h 3.5 mph /  5.6 km/h 77 % 0.00 in /  0 mm
09:18 46.1 °F /  7.8 °C 39.3 °F /  4.1 °C 30.28 in /  1025.3 hPa SSE 3.5 mph /  5.6 km/h 3.5 mph /  5.6 km/h 77 % 0.00 in /  0 mm
09:22 46.4 °F /  8 °C 39.9 °F /  4.4 °C 30.28 in /  1025.3 hPa SW 2.3 mph /  3.7 km/h 2.3 mph /  3.7 km/h 78 % 0.00 in /  0 mm
09:26 46.9 °F /  8.3 °C 40.4 °F /  4.7 °C 30.29 in /  1025.6 hPa ESE 3.5 mph /  5.6 km/h 3.5 mph /  5.6 km/h 78 % 0.00 in /  0 mm
09:31 47.5 °F /  8.6 °C 41.0 °F /  5 °C 30.29 in /  1025.6 hPa SSE 3.5 mph /  5.6 km/h 3.5 mph /  5.6 km/h 78 % 0.00 in /  0 mm
09:33 47.7 °F /  8.7 °C 41.2 °F /  5.1 °C 30.29 in /  1025.6 hPa SE 3.5 mph /  5.6 km/h 3.5 mph /  5.6 km/h 78 % 0.00 in /  0 mm
09:38 48.3 °F /  9.1 °C 41.8 °F /  5.4 °C 30.30 in /  1026 hPa SSW 3.0 mph /  4.8 km/h 3.0 mph /  4.8 km/h 78 % 0.00 in /  0 mm
09:39 48.3 °F /  9.1 °C 41.8 °F /  5.4 °C 30.30 in /  1026 hPa SE 3.5 mph /  5.6 km/h 3.5 mph /  5.6 km/h 78 % 0.00 in /  0 mm
09:44 48.6 °F /  9.2 °C 41.7 °F /  5.4 °C 30.30 in /  1026 hPa South 4.0 mph /  6.4 km/h 4.0 mph /  6.4 km/h 77 % 0.00 in /  0 mm
09:49 48.8 °F /  9.3 °C 41.9 °F /  5.5 °C 30.30 in /  1026 hPa South 2.3 mph /  3.7 km/h 2.3 mph /  3.7 km/h 77 % 0.00 in /  0 mm
09:50 48.8 °F /  9.3 °C 41.9 °F /  5.5 °C 30.30 in /  1026 hPa South 1.2 mph /  1.9 km/h 1.2 mph /  1.9 km/h 77 % 0.00 in /  0 mm
09:55 49.2 °F /  9.6 °C 42.3 °F /  5.7 °C 30.30 in /  1026 hPa SSW 2.3 mph /  3.7 km/h 2.3 mph /  3.7 km/h 77 % 0.00 in /  0 mm
09:56 49.2 °F /  9.6 °C 42.3 °F /  5.7 °C 30.30 in /  1026 hPa NE 2.3 mph /  3.7 km/h 2.3 mph /  3.7 km/h 77 % 0.00 in /  0 mm
10:01 49.4 °F /  9.7 °C 42.1 °F /  5.6 °C 30.30 in /  1026 hPa ESE 1.2 mph /  1.9 km/h 1.2 mph /  1.9 km/h 76 % 0.00 in /  0 mm
10:06 49.7 °F /  9.8 °C 42.4 °F /  5.8 °C 30.30 in /  1026 hPa Calm     76 % 0.00 in /  0 mm
10:07 49.8 °F /  9.9 °C 42.5 °F /  5.8 °C 30.30 in /  1026 hPa South 1.2 mph /  1.9 km/h 1.2 mph /  1.9 km/h 76 % 0.00 in /  0 mm
10:12 50.3 °F /  10.2 °C 42.7 °F /  5.9 °C 30.30 in /  1026 hPa SSE 1.2 mph /  1.9 km/h 1.2 mph /  1.9 km/h 75 % 0.00 in /  0 mm
10:14 50.5 °F /  10.3 °C 42.5 °F /  5.8 °C 30.30 in /  1026 hPa NE 1.2 mph /  1.9 km/h 1.2 mph /  1.9 km/h 74 % 0.00 in /  0 mm
10:19 51.1 °F /  10.6 °C 43.1 °F /  6.2 °C 30.29 in /  1025.6 hPa SE 1.2 mph /  1.9 km/h 1.2 mph /  1.9 km/h 74 % 0.00 in /  0 mm
10:20 51.2 °F /  10.7 °C 43.5 °F /  6.4 °C 30.29 in /  1025.6 hPa SSW 1.2 mph /  1.9 km/h 1.2 mph /  1.9 km/h 75 % 0.00 in /  0 mm
10:23 51.6 °F /  10.9 °C 43.6 °F /  6.4 °C 30.29 in /  1025.6 hPa ESE 1.0 mph /  1.6 km/h 1.0 mph /  1.6 km/h 74 % 0.00 in /  0 mm
10:28 52.3 °F /  11.3 °C 43.9 °F /  6.6 °C 30.29 in /  1025.6 hPa SSE 1.2 mph /  1.9 km/h 1.2 mph /  1.9 km/h 73 % 0.00 in /  0 mm
10:30 52.5 °F /  11.4 °C 43.7 °F /  6.5 °C 30.29 in /  1025.6 hPa ESE 1.2 mph /  1.9 km/h 1.2 mph /  1.9 km/h 72 % 0.00 in /  0 mm
10:31 52.7 °F /  11.5 °C 43.9 °F /  6.6 °C 30.29 in /  1025.6 hPa SSE 2.3 mph /  3.7 km/h 2.3 mph /  3.7 km/h 72 % 0.00 in /  0 mm
10:35 53.2 °F /  11.8 °C 44.0 °F /  6.7 °C 30.29 in /  1025.6 hPa SSE 1.2 mph /  1.9 km/h 1.2 mph /  1.9 km/h 71 % 0.00 in /  0 mm
10:40 53.5 °F /  11.9 °C 44.0 °F /  6.7 °C 30.29 in /  1025.6 hPa SE 1.2 mph /  1.9 km/h 1.2 mph /  1.9 km/h 70 % 0.00 in /  0 mm
10:41 53.5 °F /  11.9 °C 44.0 °F /  6.7 °C 30.29 in /  1025.6 hPa SE 2.3 mph /  3.7 km/h 2.3 mph /  3.7 km/h 70 % 0.00 in /  0 mm
10:42 53.6 °F /  12 °C 44.0 °F /  6.7 °C 30.28 in /  1025.3 hPa NE 1.2 mph /  1.9 km/h 1.2 mph /  1.9 km/h 70 % 0.00 in /  0 mm
10:47 54.0 °F /  12.2 °C 44.1 °F /  6.7 °C 30.28 in /  1025.3 hPa South 1.2 mph /  1.9 km/h   69 % 0.00 in /  0 mm
10:50 54.4 °F /  12.4 °C 44.4 °F /  6.9 °C 30.28 in /  1025.3 hPa East 1.2 mph /  1.9 km/h 1.2 mph /  1.9 km/h 69 % 0.00 in /  0 mm
10:54 54.8 °F /  12.7 °C 44.8 °F /  7.1 °C 30.28 in /  1025.3 hPa South 1.0 mph /  1.6 km/h   69 % 0.00 in /  0 mm
10:59 55.3 °F /  12.9 °C 44.5 °F /  6.9 °C 30.28 in /  1025.3 hPa SSE 2.3 mph /  3.7 km/h 2.3 mph /  3.7 km/h 67 % 0.00 in /  0 mm
11:01 55.5 °F /  13.1 °C 44.3 °F /  6.8 °C 30.28 in /  1025.3 hPa SE 1.0 mph /  1.6 km/h 1.0 mph /  1.6 km/h 66 % 0.00 in /  0 mm
11:03 55.7 °F /  13.2 °C 44.9 °F /  7.2 °C 30.28 in /  1025.3 hPa SE 1.2 mph /  1.9 km/h 1.2 mph /  1.9 km/h 67 % 0.00 in /  0 mm
11:07 56.0 °F /  13.3 °C 44.4 °F /  6.9 °C 30.27 in /  1024.9 hPa Calm   0.1 mph /  0.2 km/h 65 % 0.00 in /  0 mm
11:12 56.1 °F /  13.4 °C 44.5 °F /  6.9 °C 30.27 in /  1024.9 hPa WNW 1.2 mph /  1.9 km/h   65 % 0.00 in /  0 mm
11:13 56.1 °F /  13.4 °C 44.5 °F /  6.9 °C 30.27 in /  1024.9 hPa Calm     65 % 0.00 in /  0 mm
11:18 56.4 °F /  13.6 °C 45.2 °F /  7.3 °C 30.27 in /  1024.9 hPa NNW 1.2 mph /  1.9 km/h 1.2 mph /  1.9 km/h 66 % 0.00 in /  0 mm
11:20 56.5 °F /  13.6 °C 44.9 °F /  7.2 °C 30.27 in /  1024.9 hPa WNW 1.2 mph /  1.9 km/h 1.2 mph /  1.9 km/h 65 % 0.00 in /  0 mm
11:21 56.5 °F /  13.6 °C 44.9 °F /  7.2 °C 30.26 in /  1024.6 hPa West 1.2 mph /  1.9 km/h 1.2 mph /  1.9 km/h 65 % 0.00 in /  0 mm
11:26 56.2 °F /  13.4 °C 45.0 °F /  7.2 °C 30.26 in /  1024.6 hPa West 2.3 mph /  3.7 km/h 2.3 mph /  3.7 km/h 66 % 0.00 in /  0 mm
11:31 56.4 °F /  13.6 °C 45.2 °F /  7.3 °C 30.26 in /  1024.6 hPa Calm     66 % 0.00 in /  0 mm
11:32 56.5 °F /  13.6 °C 45.7 °F /  7.6 °C 30.26 in /  1024.6 hPa NNW 1.2 mph /  1.9 km/h 1.2 mph /  1.9 km/h 67 % 0.00 in /  0 mm
11:37 56.7 °F /  13.7 °C 45.1 °F /  7.3 °C 30.25 in /  1024.3 hPa NW 1.2 mph /  1.9 km/h 1.2 mph /  1.9 km/h 65 % 0.00 in /  0 mm
11:42 57.0 °F /  13.9 °C 45.3 °F /  7.4 °C 30.25 in /  1024.3 hPa WNW 2.3 mph /  3.7 km/h 2.3 mph /  3.7 km/h 65 % 0.00 in /  0 mm
11:43 57.0 °F /  13.9 °C 45.3 °F /  7.4 °C 30.25 in /  1024.3 hPa WSW 2.3 mph /  3.7 km/h 2.3 mph /  3.7 km/h 65 % 0.00 in /  0 mm
11:45 57.1 °F /  13.9 °C 45.8 °F /  7.7 °C 30.25 in /  1024.3 hPa WNW 1.2 mph /  1.9 km/h 1.2 mph /  1.9 km/h 66 % 0.00 in /  0 mm
11:49 57.4 °F /  14.1 °C 45.7 °F /  7.6 °C 30.25 in /  1024.3 hPa NNW 1.2 mph /  1.9 km/h 1.2 mph /  1.9 km/h 65 % 0.00 in /  0 mm
11:54 57.6 °F /  14.2 °C 45.5 °F /  7.5 °C 30.25 in /  1024.3 hPa West 1.2 mph /  1.9 km/h 1.2 mph /  1.9 km/h 64 % 0.00 in /  0 mm
11:55 57.6 °F /  14.2 °C 45.5 °F /  7.5 °C 30.25 in /  1024.3 hPa WNW 1.2 mph /  1.9 km/h   64 % 0.00 in /  0 mm
11:56 57.6 °F /  14.2 °C 45.9 °F /  7.7 °C 30.25 in /  1024.3 hPa WNW 1.0 mph /  1.6 km/h   65 % 0.00 in /  0 mm
12:01 57.5 °F /  14.2 °C 45.4 °F /  7.4 °C 30.24 in /  1023.9 hPa WNW 1.2 mph /  1.9 km/h 1.2 mph /  1.9 km/h 64 % 0.00 in /  0 mm
12:02 57.5 °F /  14.2 °C 45.4 °F /  7.4 °C 30.24 in /  1023.9 hPa NW 2.3 mph /  3.7 km/h 2.3 mph /  3.7 km/h 64 % 0.00 in /  0 mm
12:06 57.6 °F /  14.2 °C 45.5 °F /  7.5 °C 30.24 in /  1023.9 hPa SSW 1.0 mph /  1.6 km/h   64 % 0.00 in /  0 mm
12:09 58.0 °F /  14.4 °C 46.3 °F /  7.9 °C 30.23 in /  1023.6 hPa SSE 1.2 mph /  1.9 km/h 1.2 mph /  1.9 km/h 65 % 0.00 in /  0 mm
12:11 58.2 °F /  14.6 °C 46.1 °F /  7.8 °C 30.23 in /  1023.6 hPa Calm     64 % 0.00 in /  0 mm
12:15 58.3 °F /  14.6 °C 45.3 °F /  7.4 °C 30.23 in /  1023.6 hPa Calm     62 % 0.00 in /  0 mm
12:16 58.4 °F /  14.7 °C 46.3 °F /  7.9 °C 30.23 in /  1023.6 hPa Calm     64 % 0.00 in /  0 mm
12:21 58.7 °F /  14.8 °C 45.7 °F /  7.6 °C 30.22 in /  1023.2 hPa WNW 1.2 mph /  1.9 km/h 1.2 mph /  1.9 km/h 62 % 0.00 in /  0 mm
12:24 58.5 °F /  14.7 °C 45.9 °F /  7.7 °C 30.22 in /  1023.2 hPa WNW 1.2 mph /  1.9 km/h   63 % 0.00 in /  0 mm
12:26 58.5 °F /  14.7 °C 46.4 °F /  8 °C 30.22 in /  1023.2 hPa Calm     64 % 0.00 in /  0 mm
12:30 58.6 °F /  14.8 °C 45.6 °F /  7.6 °C 30.21 in /  1022.9 hPa WNW 1.2 mph /  1.9 km/h 1.2 mph /  1.9 km/h 62 % 0.00 in /  0 mm
12:33 58.7 °F /  14.8 °C 45.7 °F /  7.6 °C 30.21 in /  1022.9 hPa Calm     62 % 0.00 in /  0 mm
12:36 58.8 °F /  14.9 °C 45.8 °F /  7.7 °C 30.21 in /  1022.9 hPa Calm     62 % 0.00 in /  0 mm
12:40 59.2 °F /  15.1 °C 45.8 °F /  7.7 °C 30.21 in /  1022.9 hPa Calm     61 % 0.00 in /  0 mm
12:45 59.7 °F /  15.4 °C 45.8 °F /  7.7 °C 30.20 in /  1022.6 hPa West 1.2 mph /  1.9 km/h 1.2 mph /  1.9 km/h 60 % 0.00 in /  0 mm
12:50 59.8 °F /  15.4 °C 45.9 °F /  7.7 °C 30.20 in /  1022.6 hPa WNW 1.2 mph /  1.9 km/h 1.2 mph /  1.9 km/h 60 % 0.00 in /  0 mm
12:52 59.9 °F /  15.5 °C 45.5 °F /  7.5 °C 30.20 in /  1022.6 hPa NW 1.2 mph /  1.9 km/h 1.2 mph /  1.9 km/h 59 % 0.00 in /  0 mm
12:58 60.3 °F /  15.7 °C 46.4 °F /  8 °C 30.20 in /  1022.6 hPa Calm   0.5 mph /  0.8 km/h 60 % 0.00 in /  0 mm
13:00 60.3 °F /  15.7 °C 46.4 °F /  8 °C 30.20 in /  1022.6 hPa WNW 1.2 mph /  1.9 km/h   60 % 0.00 in /  0 mm
13:01 60.3 °F /  15.7 °C 45.9 °F /  7.7 °C 30.19 in /  1022.2 hPa Calm     59 % 0.00 in /  0 mm
13:06 60.5 °F /  15.8 °C 46.5 °F /  8.1 °C 30.19 in /  1022.2 hPa Calm     60 % 0.00 in /  0 mm
13:07 60.5 °F /  15.8 °C 46.5 °F /  8.1 °C 30.19 in /  1022.2 hPa Calm     60 % 0.00 in /  0 mm
13:12 61.1 °F /  16.2 °C 46.7 °F /  8.2 °C 30.19 in /  1022.2 hPa WNW 2.3 mph /  3.7 km/h 2.3 mph /  3.7 km/h 59 % 0.00 in /  0 mm
13:13 61.2 °F /  16.2 °C 46.8 °F /  8.2 °C 30.19 in /  1022.2 hPa Calm     59 % 0.00 in /  0 mm
13:18 61.2 °F /  16.2 °C 46.3 °F /  7.9 °C 30.18 in /  1021.9 hPa NW 1.2 mph /  1.9 km/h   58 % 0.00 in /  0 mm
13:20 61.3 °F /  16.3 °C 46.4 °F /  8 °C 30.18 in /  1021.9 hPa WSW 1.2 mph /  1.9 km/h   58 % 0.00 in /  0 mm
13:22 61.3 °F /  16.3 °C 46.4 °F /  8 °C 30.18 in /  1021.9 hPa WNW 1.2 mph /  1.9 km/h 1.2 mph /  1.9 km/h 58 % 0.00 in /  0 mm
13:27 61.5 °F /  16.4 °C 46.1 °F /  7.8 °C 30.18 in /  1021.9 hPa Calm     57 % 0.00 in /  0 mm
13:32 61.7 °F /  16.5 °C 46.8 °F /  8.2 °C 30.18 in /  1021.9 hPa NW 2.3 mph /  3.7 km/h 2.3 mph /  3.7 km/h 58 % 0.00 in /  0 mm
13:34 61.7 °F /  16.5 °C 46.3 °F /  7.9 °C 30.18 in /  1021.9 hPa West 2.3 mph /  3.7 km/h 2.3 mph /  3.7 km/h 57 % 0.00 in /  0 mm
13:39 61.6 °F /  16.4 °C 46.2 °F /  7.9 °C 30.17 in /  1021.6 hPa WNW 1.2 mph /  1.9 km/h 1.2 mph /  1.9 km/h 57 % 0.00 in /  0 mm
13:40 61.6 °F /  16.4 °C 46.2 °F /  7.9 °C 30.17 in /  1021.6 hPa WNW 1.2 mph /  1.9 km/h   57 % 0.00 in /  0 mm
13:41 61.7 °F /  16.5 °C 46.3 °F /  7.9 °C 30.17 in /  1021.6 hPa WNW 1.2 mph /  1.9 km/h 1.2 mph /  1.9 km/h 57 % 0.00 in /  0 mm
13:46 61.8 °F /  16.6 °C 46.4 °F /  8 °C 30.17 in /  1021.6 hPa WNW 1.2 mph /  1.9 km/h 1.2 mph /  1.9 km/h 57 % 0.00 in /  0 mm
13:48 61.8 °F /  16.6 °C 46.4 °F /  8 °C 30.17 in /  1021.6 hPa WNW 1.0 mph /  1.6 km/h 1.0 mph /  1.6 km/h 57 % 0.00 in /  0 mm
13:52 61.8 °F /  16.6 °C 46.4 °F /  8 °C 30.17 in /  1021.6 hPa WNW 1.2 mph /  1.9 km/h 1.2 mph /  1.9 km/h 57 % 0.00 in /  0 mm
13:53 62.0 °F /  16.7 °C 46.6 °F /  8.1 °C 30.17 in /  1021.6 hPa WNW 1.2 mph /  1.9 km/h 1.2 mph /  1.9 km/h 57 % 0.00 in /  0 mm
13:58 62.1 °F /  16.7 °C 46.2 °F /  7.9 °C 30.17 in /  1021.6 hPa NW 1.2 mph /  1.9 km/h 1.2 mph /  1.9 km/h 56 % 0.00 in /  0 mm
14:02 62.1 °F /  16.7 °C 46.2 °F /  7.9 °C 30.17 in /  1021.6 hPa Calm     56 % 0.00 in /  0 mm
14:05 62.2 °F /  16.8 °C 46.3 °F /  7.9 °C 30.17 in /  1021.6 hPa NW 1.2 mph /  1.9 km/h 1.2 mph /  1.9 km/h 56 % 0.00 in /  0 mm
14:09 62.3 °F /  16.8 °C 46.9 °F /  8.3 °C 30.17 in /  1021.6 hPa NNW 1.2 mph /  1.9 km/h 1.2 mph /  1.9 km/h 57 % 0.00 in /  0 mm
14:10 62.4 °F /  16.9 °C 47.0 °F /  8.3 °C 30.17 in /  1021.6 hPa NW 2.3 mph /  3.7 km/h 2.3 mph /  3.7 km/h 57 % 0.00 in /  0 mm
14:15 62.5 °F /  16.9 °C 46.6 °F /  8.1 °C 30.17 in /  1021.6 hPa NNE 1.2 mph /  1.9 km/h 1.2 mph /  1.9 km/h 56 % 0.00 in /  0 mm
14:17 62.5 °F /  16.9 °C 46.6 °F /  8.1 °C 30.17 in /  1021.6 hPa WNW 1.2 mph /  1.9 km/h   56 % 0.00 in /  0 mm
14:22 62.6 °F /  17 °C 46.2 °F /  7.9 °C 30.17 in /  1021.6 hPa WNW 2.3 mph /  3.7 km/h 2.3 mph /  3.7 km/h 55 % 0.00 in /  0 mm
14:27 62.6 °F /  17 °C 46.2 °F /  7.9 °C 30.17 in /  1021.6 hPa West 1.2 mph /  1.9 km/h 1.2 mph /  1.9 km/h 55 % 0.00 in /  0 mm
14:29 62.7 °F /  17.1 °C 46.3 °F /  7.9 °C 30.17 in /  1021.6 hPa NW 1.2 mph /  1.9 km/h 1.2 mph /  1.9 km/h 55 % 0.00 in /  0 mm
14:34 62.8 °F /  17.1 °C 45.9 °F /  7.7 °C 30.17 in /  1021.6 hPa Calm     54 % 0.00 in /  0 mm
14:36 62.7 °F /  17.1 °C 45.8 °F /  7.7 °C 30.17 in /  1021.6 hPa Calm   0.2 mph /  0.3 km/h 54 % 0.00 in /  0 mm
14:40 62.7 °F /  17.1 °C 46.3 °F /  7.9 °C 30.17 in /  1021.6 hPa NW 1.2 mph /  1.9 km/h 1.2 mph /  1.9 km/h 55 % 0.00 in /  0 mm
14:45 62.6 °F /  17 °C 46.7 °F /  8.2 °C 30.17 in /  1021.6 hPa WNW 1.0 mph /  1.6 km/h 1.0 mph /  1.6 km/h 56 % 0.00 in /  0 mm
14:46 62.6 °F /  17 °C 46.7 °F /  8.2 °C 30.17 in /  1021.6 hPa NW 1.2 mph /  1.9 km/h 1.2 mph /  1.9 km/h 56 % 0.00 in /  0 mm
14:50 62.6 °F /  17 °C 46.2 °F /  7.9 °C 30.17 in /  1021.6 hPa NW 1.2 mph /  1.9 km/h   55 % 0.00 in /  0 mm
14:55 62.7 °F /  17.1 °C 46.3 °F /  7.9 °C 30.17 in /  1021.6 hPa Calm     55 % 0.00 in /  0 mm
15:00 62.5 °F /  16.9 °C 45.6 °F /  7.6 °C 30.17 in /  1021.6 hPa Calm   0.2 mph /  0.3 km/h 54 % 0.00 in /  0 mm
15:01 62.5 °F /  16.9 °C 46.1 °F /  7.8 °C 30.17 in /  1021.6 hPa NW 1.2 mph /  1.9 km/h 1.2 mph /  1.9 km/h 55 % 0.00 in /  0 mm
15:06 62.3 °F /  16.8 °C 45.4 °F /  7.4 °C 30.18 in /  1021.9 hPa Calm     54 % 0.00 in /  0 mm
15:07 62.3 °F /  16.8 °C 45.4 °F /  7.4 °C 30.18 in /  1021.9 hPa Calm     54 % 0.00 in /  0 mm
15:11 62.2 °F /  16.8 °C 45.8 °F /  7.7 °C 30.18 in /  1021.9 hPa WNW 1.0 mph /  1.6 km/h 1.0 mph /  1.6 km/h 55 % 0.00 in /  0 mm
15:13 62.2 °F /  16.8 °C 45.3 °F /  7.4 °C 30.18 in /  1021.9 hPa WNW 1.2 mph /  1.9 km/h 1.2 mph /  1.9 km/h 54 % 0.00 in /  0 mm
15:18 62.1 °F /  16.7 °C 45.2 °F /  7.3 °C 30.18 in /  1021.9 hPa Calm     54 % 0.00 in /  0 mm
15:21 62.0 °F /  16.7 °C 45.2 °F /  7.3 °C 30.17 in /  1021.6 hPa WNW 1.2 mph /  1.9 km/h 1.2 mph /  1.9 km/h 54 % 0.00 in /  0 mm
15:24 61.8 °F /  16.6 °C 45.0 °F /  7.2 °C 30.17 in /  1021.6 hPa WNW 1.2 mph /  1.9 km/h 1.2 mph /  1.9 km/h 54 % 0.00 in /  0 mm
15:28 61.6 °F /  16.4 °C 45.3 °F /  7.4 °C 30.17 in /  1021.6 hPa Calm     55 % 0.00 in /  0 mm
15:31 61.5 °F /  16.4 °C 45.2 °F /  7.3 °C 30.17 in /  1021.6 hPa Calm     55 % 0.00 in /  0 mm
15:35 61.3 °F /  16.3 °C 45.5 °F /  7.5 °C 30.17 in /  1021.6 hPa Calm     56 % 0.00 in /  0 mm
15:37 61.1 °F /  16.2 °C 45.3 °F /  7.4 °C 30.17 in /  1021.6 hPa Calm     56 % 0.00 in /  0 mm
15:42 60.9 °F /  16.1 °C 45.6 °F /  7.6 °C 30.17 in /  1021.6 hPa Calm     57 % 0.00 in /  0 mm
15:47 60.7 °F /  15.9 °C 45.8 °F /  7.7 °C 30.17 in /  1021.6 hPa Calm     58 % 0.00 in /  0 mm
15:48 60.6 °F /  15.9 °C 45.7 °F /  7.6 °C 30.17 in /  1021.6 hPa Calm     58 % 0.00 in /  0 mm
15:53 60.2 °F /  15.7 °C 45.8 °F /  7.7 °C 30.17 in /  1021.6 hPa Calm     59 % 0.00 in /  0 mm
15:58 59.9 °F /  15.5 °C 46.0 °F /  7.8 °C 30.17 in /  1021.6 hPa Calm     60 % 0.00 in /  0 mm
16:00 59.8 °F /  15.4 °C 45.9 °F /  7.7 °C 30.17 in /  1021.6 hPa Calm     60 % 0.00 in /  0 mm
16:02 59.6 °F /  15.3 °C 46.1 °F /  7.8 °C 30.17 in /  1021.6 hPa Calm     61 % 0.00 in /  0 mm
16:06 59.5 °F /  15.3 °C 46.0 °F /  7.8 °C 30.17 in /  1021.6 hPa Calm     61 % 0.00 in /  0 mm
16:11 59.3 °F /  15.2 °C 46.3 °F /  7.9 °C 30.17 in /  1021.6 hPa WNW 1.2 mph /  1.9 km/h 1.2 mph /  1.9 km/h 62 % 0.00 in /  0 mm
16:12 59.3 °F /  15.2 °C 46.3 °F /  7.9 °C 30.17 in /  1021.6 hPa WNW 1.0 mph /  1.6 km/h   62 % 0.00 in /  0 mm
16:17 59.3 °F /  15.2 °C 46.3 °F /  7.9 °C 30.17 in /  1021.6 hPa WNW 1.2 mph /  1.9 km/h 1.2 mph /  1.9 km/h 62 % 0.00 in /  0 mm
16:20 59.3 °F /  15.2 °C 46.3 °F /  7.9 °C 30.17 in /  1021.6 hPa Calm     62 % 0.00 in /  0 mm
16:22 59.2 °F /  15.1 °C 46.2 °F /  7.9 °C 30.16 in /  1021.2 hPa Calm     62 % 0.00 in /  0 mm
16:27 59.0 °F /  15 °C 46.4 °F /  8 °C 30.16 in /  1021.2 hPa Calm     63 % 0.00 in /  0 mm
16:29 58.9 °F /  14.9 °C 46.3 °F /  7.9 °C 30.16 in /  1021.2 hPa Calm     63 % 0.00 in /  0 mm
16:34 58.7 °F /  14.8 °C 46.5 °F /  8.1 °C 30.17 in /  1021.6 hPa Calm     64 % 0.00 in /  0 mm
16:39 58.3 °F /  14.6 °C 46.2 °F /  7.9 °C 30.17 in /  1021.6 hPa Calm     64 % 0.00 in /  0 mm
16:40 58.3 °F /  14.6 °C 46.2 °F /  7.9 °C 30.17 in /  1021.6 hPa Calm     64 % 0.00 in /  0 mm
16:44 58.0 °F /  14.4 °C 46.3 °F /  7.9 °C 30.17 in /  1021.6 hPa Calm     65 % 0.00 in /  0 mm
16:46 57.8 °F /  14.3 °C 46.1 °F /  7.8 °C 30.17 in /  1021.6 hPa Calm     65 % 0.00 in /  0 mm
16:49 57.4 °F /  14.1 °C 46.1 °F /  7.8 °C 30.17 in /  1021.6 hPa Calm     66 % 0.00 in /  0 mm
16:52 57.1 °F /  13.9 °C 45.8 °F /  7.7 °C 30.17 in /  1021.6 hPa Calm     66 % 0.00 in /  0 mm
16:57 56.6 °F /  13.7 °C 46.2 °F /  7.9 °C 30.17 in /  1021.6 hPa Calm     68 % 0.00 in /  0 mm
17:02 56.0 °F /  13.3 °C 45.6 °F /  7.6 °C 30.17 in /  1021.6 hPa Calm     68 % 0.00 in /  0 mm
17:03 56.0 °F /  13.3 °C 45.6 °F /  7.6 °C 30.17 in /  1021.6 hPa Calm     68 % 0.00 in /  0 mm
17:08 55.4 °F /  13 °C 45.8 °F /  7.7 °C 30.17 in /  1021.6 hPa Calm     70 % 0.00 in /  0 mm
17:14 54.7 °F /  12.6 °C 45.5 °F /  7.5 °C 30.17 in /  1021.6 hPa Calm     71 % 0.00 in /  0 mm
17:16 54.4 °F /  12.4 °C 46.3 °F /  7.9 °C 30.17 in /  1021.6 hPa Calm     74 % 0.00 in /  0 mm
17:20 54.3 °F /  12.4 °C 46.2 °F /  7.9 °C 30.17 in /  1021.6 hPa Calm     74 % 0.00 in /  0 mm
17:23 54.2 °F /  12.3 °C 45.7 °F /  7.6 °C 30.18 in /  1021.9 hPa Calm     73 % 0.00 in /  0 mm
17:25 54.2 °F /  12.3 °C 46.1 °F /  7.8 °C 30.18 in /  1021.9 hPa Calm     74 % 0.00 in /  0 mm
17:30 54.0 °F /  12.2 °C 45.5 °F /  7.5 °C 30.18 in /  1021.9 hPa Calm     73 % 0.00 in /  0 mm
17:31 54.0 °F /  12.2 °C 45.9 °F /  7.7 °C 30.18 in /  1021.9 hPa Calm     74 % 0.00 in /  0 mm
17:37 53.6 °F /  12 °C 45.5 °F /  7.5 °C 30.18 in /  1021.9 hPa Calm     74 % 0.00 in /  0 mm
17:42 53.5 °F /  11.9 °C 45.8 °F /  7.7 °C 30.18 in /  1021.9 hPa Calm     75 % 0.00 in /  0 mm
17:45 53.3 °F /  11.8 °C 45.6 °F /  7.6 °C 30.19 in /  1022.2 hPa Calm     75 % 0.00 in /  0 mm
17:50 53.0 °F /  11.7 °C 45.6 °F /  7.6 °C 30.19 in /  1022.2 hPa Calm     76 % 0.00 in /  0 mm
17:53 52.8 °F /  11.6 °C 45.4 °F /  7.4 °C 30.19 in /  1022.2 hPa Calm     76 % 0.00 in /  0 mm
17:56 52.5 °F /  11.4 °C 45.2 °F /  7.3 °C 30.19 in /  1022.2 hPa Calm     76 % 0.00 in /  0 mm
17:58 52.4 °F /  11.3 °C 45.1 °F /  7.3 °C 30.19 in /  1022.2 hPa Calm     76 % 0.00 in /  0 mm
18:03 52.2 °F /  11.2 °C 45.2 °F /  7.3 °C 30.19 in /  1022.2 hPa Calm     77 % 0.00 in /  0 mm
18:08 51.9 °F /  11.1 °C 45.3 °F /  7.4 °C 30.19 in /  1022.2 hPa Calm     78 % 0.00 in /  0 mm
18:09 51.8 °F /  11 °C 45.2 °F /  7.3 °C 30.19 in /  1022.2 hPa Calm     78 % 0.00 in /  0 mm
18:14 51.8 °F /  11 °C 45.2 °F /  7.3 °C 30.19 in /  1022.2 hPa Calm     78 % 0.00 in /  0 mm
18:19 51.6 °F /  10.9 °C 45.0 °F /  7.2 °C 30.20 in /  1022.6 hPa Calm     78 % 0.00 in /  0 mm
18:24 51.5 °F /  10.8 °C 44.9 °F /  7.2 °C 30.20 in /  1022.6 hPa Calm     78 % 0.00 in /  0 mm
18:25 51.5 °F /  10.8 °C 44.9 °F /  7.2 °C 30.20 in /  1022.6 hPa Calm     78 % 0.00 in /  0 mm
18:30 51.2 °F /  10.7 °C 44.6 °F /  7 °C 30.20 in /  1022.6 hPa Calm     78 % 0.00 in /  0 mm
18:35 50.9 °F /  10.5 °C 44.6 °F /  7 °C 30.20 in /  1022.6 hPa Calm     79 % 0.00 in /  0 mm
18:41 50.8 °F /  10.4 °C 44.5 °F /  6.9 °C 30.20 in /  1022.6 hPa Calm     79 % 0.00 in /  0 mm
18:46 50.7 °F /  10.4 °C 44.4 °F /  6.9 °C 30.20 in /  1022.6 hPa Calm     79 % 0.00 in /  0 mm
18:53 50.3 °F /  10.2 °C 44.4 °F /  6.9 °C 30.20 in /  1022.6 hPa Calm     80 % 0.00 in /  0 mm
18:58 50.1 °F /  10.1 °C 44.5 °F /  6.9 °C 30.21 in /  1022.9 hPa Calm     81 % 0.00 in /  0 mm
18:59 50.1 °F /  10.1 °C 44.5 °F /  6.9 °C 30.20 in /  1022.6 hPa Calm     81 % 0.00 in /  0 mm
19:04 49.9 °F /  9.9 °C 44.3 °F /  6.8 °C 30.21 in /  1022.9 hPa Calm     81 % 0.00 in /  0 mm
19:09 49.6 °F /  9.8 °C 44.3 °F /  6.8 °C 30.20 in /  1022.6 hPa Calm     82 % 0.00 in /  0 mm
19:13 49.4 °F /  9.7 °C 44.1 °F /  6.7 °C 30.21 in /  1022.9 hPa Calm     82 % 0.00 in /  0 mm
19:19 49.0 °F /  9.4 °C 43.7 °F /  6.5 °C 30.20 in /  1022.6 hPa Calm     82 % 0.00 in /  0 mm
19:20 48.9 °F /  9.4 °C 43.6 °F /  6.4 °C 30.20 in /  1022.6 hPa Calm     82 % 0.00 in /  0 mm
19:25 48.6 °F /  9.2 °C 43.7 °F /  6.5 °C 30.20 in /  1022.6 hPa Calm     83 % 0.00 in /  0 mm
19:29 48.3 °F /  9.1 °C 43.4 °F /  6.3 °C 30.20 in /  1022.6 hPa Calm     83 % 0.00 in /  0 mm
19:34 48.4 °F /  9.1 °C 44.1 °F /  6.7 °C 30.21 in /  1022.9 hPa Calm     85 % 0.00 in /  0 mm
19:35 48.4 °F /  9.1 °C 44.1 °F /  6.7 °C 30.21 in /  1022.9 hPa Calm     85 % 0.00 in /  0 mm
19:40 48.5 °F /  9.2 °C 43.9 °F /  6.6 °C 30.21 in /  1022.9 hPa Calm     84 % 0.00 in /  0 mm
19:45 48.2 °F /  9 °C 43.3 °F /  6.3 °C 30.21 in /  1022.9 hPa Calm     83 % 0.00 in /  0 mm
19:50 47.6 °F /  8.7 °C 42.7 °F /  5.9 °C 30.21 in /  1022.9 hPa Calm     83 % 0.00 in /  0 mm
19:51 47.5 °F /  8.6 °C 42.9 °F /  6.1 °C 30.21 in /  1022.9 hPa Calm     84 % 0.00 in /  0 mm
19:56 47.3 °F /  8.5 °C 43.0 °F /  6.1 °C 30.21 in /  1022.9 hPa Calm     85 % 0.00 in /  0 mm
19:59 47.1 °F /  8.4 °C 42.8 °F /  6 °C 30.21 in /  1022.9 hPa Calm     85 % 0.00 in /  0 mm
20:04 46.9 °F /  8.3 °C 42.9 °F /  6.1 °C 30.21 in /  1022.9 hPa Calm     86 % 0.00 in /  0 mm
20:06 47.0 °F /  8.3 °C 43.0 °F /  6.1 °C 30.21 in /  1022.9 hPa Calm     86 % 0.00 in /  0 mm
20:11 47.5 °F /  8.6 °C 43.2 °F /  6.2 °C 30.21 in /  1022.9 hPa Calm     85 % 0.00 in /  0 mm
20:13 47.6 °F /  8.7 °C 43.3 °F /  6.3 °C 30.21 in /  1022.9 hPa Calm     85 % 0.00 in /  0 mm
20:18 48.2 °F /  9 °C 43.6 °F /  6.4 °C 30.21 in /  1022.9 hPa Calm     84 % 0.00 in /  0 mm
20:21 48.4 °F /  9.1 °C 43.5 °F /  6.4 °C 30.21 in /  1022.9 hPa Calm     83 % 0.00 in /  0 mm
20:24 48.3 °F /  9.1 °C 43.4 °F /  6.3 °C 30.21 in /  1022.9 hPa Calm     83 % 0.00 in /  0 mm
20:29 48.3 °F /  9.1 °C 43.1 °F /  6.2 °C 30.21 in /  1022.9 hPa Calm     82 % 0.00 in /  0 mm
20:32 48.2 °F /  9 °C 43.0 °F /  6.1 °C 30.21 in /  1022.9 hPa Calm     82 % 0.00 in /  0 mm
20:37 47.9 °F /  8.8 °C 42.7 °F /  5.9 °C 30.21 in /  1022.9 hPa Calm     82 % 0.00 in /  0 mm
20:41 47.5 °F /  8.6 °C 42.6 °F /  5.9 °C 30.21 in /  1022.9 hPa Calm     83 % 0.00 in /  0 mm
20:46 47.1 °F /  8.4 °C 42.2 °F /  5.7 °C 30.21 in /  1022.9 hPa Calm     83 % 0.00 in /  0 mm
20:47 47.1 °F /  8.4 °C 42.2 °F /  5.7 °C 30.21 in /  1022.9 hPa Calm     83 % 0.00 in /  0 mm
20:48 47.0 °F /  8.3 °C 42.4 °F /  5.8 °C 30.21 in /  1022.9 hPa Calm     84 % 0.00 in /  0 mm
20:53 46.6 °F /  8.1 °C 42.0 °F /  5.6 °C 30.21 in /  1022.9 hPa Calm     84 % 0.00 in /  0 mm
20:55 46.5 °F /  8.1 °C 41.9 °F /  5.5 °C 30.21 in /  1022.9 hPa Calm     84 % 0.00 in /  0 mm
20:59 46.1 °F /  7.8 °C 41.5 °F /  5.3 °C 30.22 in /  1023.2 hPa Calm     84 % 0.00 in /  0 mm
21:04 45.6 °F /  7.6 °C 41.0 °F /  5 °C 30.22 in /  1023.2 hPa Calm     84 % 0.00 in /  0 mm
21:09 45.2 °F /  7.3 °C 41.0 °F /  5 °C 30.22 in /  1023.2 hPa Calm     85 % 0.00 in /  0 mm
21:11 45.1 °F /  7.3 °C 41.2 °F /  5.1 °C 30.22 in /  1023.2 hPa Calm     86 % 0.00 in /  0 mm
21:14 44.9 °F /  7.2 °C 41.0 °F /  5 °C 30.22 in /  1023.2 hPa Calm     86 % 0.00 in /  0 mm
21:21 44.3 °F /  6.8 °C 40.4 °F /  4.7 °C 30.22 in /  1023.2 hPa Calm     86 % 0.00 in /  0 mm
21:30 44.1 °F /  6.7 °C 40.8 °F /  4.9 °C 30.22 in /  1023.2 hPa Calm     88 % 0.00 in /  0 mm
21:35 44.1 °F /  6.7 °C 40.5 °F /  4.7 °C 30.22 in /  1023.2 hPa Calm     87 % 0.00 in /  0 mm
21:36 44.1 °F /  6.7 °C 40.5 °F /  4.7 °C 30.22 in /  1023.2 hPa Calm     87 % 0.00 in /  0 mm
21:37 44.1 °F /  6.7 °C 40.8 °F /  4.9 °C 30.22 in /  1023.2 hPa Calm     88 % 0.00 in /  0 mm
21:42 44.2 °F /  6.8 °C 40.9 °F /  4.9 °C 30.22 in /  1023.2 hPa Calm     88 % 0.00 in /  0 mm
21:47 44.4 °F /  6.9 °C 41.4 °F /  5.2 °C 30.23 in /  1023.6 hPa Calm     89 % 0.00 in /  0 mm
21:49 44.4 °F /  6.9 °C 41.4 °F /  5.2 °C 30.22 in /  1023.2 hPa Calm     89 % 0.00 in /  0 mm
21:53 44.4 °F /  6.9 °C 41.4 °F /  5.2 °C 30.22 in /  1023.2 hPa Calm     89 % 0.00 in /  0 mm
21:58 44.5 °F /  6.9 °C 41.5 °F /  5.3 °C 30.23 in /  1023.6 hPa Calm     89 % 0.00 in /  0 mm
22:03 44.9 °F /  7.2 °C 41.9 °F /  5.5 °C 30.23 in /  1023.6 hPa Calm     89 % 0.00 in /  0 mm
22:04 44.9 °F /  7.2 °C 41.9 °F /  5.5 °C 30.22 in /  1023.2 hPa Calm     89 % 0.00 in /  0 mm
22:06 44.9 °F /  7.2 °C 41.9 °F /  5.5 °C 30.23 in /  1023.6 hPa Calm     89 % 0.00 in /  0 mm
22:09 45.0 °F /  7.2 °C 41.7 °F /  5.4 °C 30.23 in /  1023.6 hPa Calm     88 % 0.00 in /  0 mm
22:17 45.1 °F /  7.3 °C 41.8 °F /  5.4 °C 30.22 in /  1023.2 hPa Calm     88 % 0.00 in /  0 mm
22:22 45.2 °F /  7.3 °C 41.9 °F /  5.5 °C 30.23 in /  1023.6 hPa Calm     88 % 0.00 in /  0 mm
22:27 45.3 °F /  7.4 °C 42.0 °F /  5.6 °C 30.22 in /  1023.2 hPa Calm     88 % 0.00 in /  0 mm
22:28 45.3 °F /  7.4 °C 42.0 °F /  5.6 °C 30.22 in /  1023.2 hPa Calm     88 % 0.00 in /  0 mm
22:33 45.3 °F /  7.4 °C 41.7 °F /  5.4 °C 30.22 in /  1023.2 hPa Calm     87 % 0.00 in /  0 mm
22:36 45.3 °F /  7.4 °C 42.0 °F /  5.6 °C 30.22 in /  1023.2 hPa Calm     88 % 0.00 in /  0 mm
22:39 45.4 °F /  7.4 °C 42.1 °F /  5.6 °C 30.22 in /  1023.2 hPa Calm     88 % 0.00 in /  0 mm
22:41 45.5 °F /  7.5 °C 41.9 °F /  5.5 °C 30.22 in /  1023.2 hPa Calm     87 % 0.00 in /  0 mm
22:45 45.5 °F /  7.5 °C 41.9 °F /  5.5 °C 30.22 in /  1023.2 hPa Calm     87 % 0.00 in /  0 mm
22:48 45.3 °F /  7.4 °C 41.4 °F /  5.2 °C 30.22 in /  1023.2 hPa Calm     86 % 0.00 in /  0 mm
22:53 44.8 °F /  7.1 °C 41.2 °F /  5.1 °C 30.22 in /  1023.2 hPa Calm     87 % 0.00 in /  0 mm
22:58 45.0 °F /  7.2 °C 41.4 °F /  5.2 °C 30.22 in /  1023.2 hPa WNW 1.2 mph /  1.9 km/h   87 % 0.00 in /  0 mm
22:59 44.9 °F /  7.2 °C 41.3 °F /  5.2 °C 30.22 in /  1023.2 hPa Calm     87 % 0.00 in /  0 mm
23:04 44.6 °F /  7 °C 41.0 °F /  5 °C 30.22 in /  1023.2 hPa Calm     87 % 0.00 in /  0 mm
23:09 44.5 °F /  6.9 °C 40.9 °F /  4.9 °C 30.22 in /  1023.2 hPa Calm     87 % 0.00 in /  0 mm
23:14 44.5 °F /  6.9 °C 40.9 °F /  4.9 °C 30.22 in /  1023.2 hPa Calm     87 % 0.00 in /  0 mm
23:16 44.5 °F /  6.9 °C 40.9 °F /  4.9 °C 30.22 in /  1023.2 hPa Calm     87 % 0.00 in /  0 mm
23:22 44.4 °F /  6.9 °C 40.8 °F /  4.9 °C 30.22 in /  1023.2 hPa Calm     87 % 0.00 in /  0 mm
23:27 44.1 °F /  6.7 °C 40.5 °F /  4.7 °C 30.22 in /  1023.2 hPa Calm     87 % 0.00 in /  0 mm
23:29 44.1 °F /  6.7 °C 40.5 °F /  4.7 °C 30.22 in /  1023.2 hPa Calm     87 % 0.00 in /  0 mm
23:32 44.1 °F /  6.7 °C 40.5 °F /  4.7 °C 30.22 in /  1023.2 hPa Calm     87 % 0.00 in /  0 mm
23:34 44.1 °F /  6.7 °C 40.5 °F /  4.7 °C 30.22 in /  1023.2 hPa Calm     87 % 0.00 in /  0 mm
23:39 44.1 °F /  6.7 °C 40.5 °F /  4.7 °C 30.22 in /  1023.2 hPa Calm     87 % 0.00 in /  0 mm
23:42 44.0 °F /  6.7 °C 40.4 °F /  4.7 °C 30.22 in /  1023.2 hPa Calm     87 % 0.00 in /  0 mm
23:47 43.7 °F /  6.5 °C 40.1 °F /  4.5 °C 30.22 in /  1023.2 hPa Calm     87 % 0.00 in /  0 mm
23:52 43.3 °F /  6.3 °C 39.7 °F /  4.3 °C 30.22 in /  1023.2 hPa Calm     87 % 0.00 in /  0 mm
23:53 43.2 °F /  6.2 °C 39.6 °F /  4.2 °C 30.22 in /  1023.2 hPa Calm     87 % 0.00 in /  0 mm
23:58 43.1 °F /  6.2 °C 39.8 °F /  4.3 °C 30.22 in /  1023.2 hPa Calm     88 % 0.00 in /  0 mm
Park Place, Exeter, Tulare County, California, USA
Compliments of Weather Underground - 3.5 mb